createdAt,value
2017-10-19T00:01:14.229Z,37.47
2017-10-19T00:03:41.843Z,43.47
2017-10-19T00:06:09.429Z,42.42
2017-10-19T00:08:37.044Z,34.60
2017-10-19T00:11:04.713Z,38.85
2017-10-19T00:13:32.374Z,39.10
2017-10-19T00:15:59.998Z,43.08
2017-10-19T00:18:27.614Z,43.00
2017-10-19T00:20:55.210Z,40.90
2017-10-19T00:23:22.831Z,38.95
2017-10-19T00:25:50.427Z,40.00
2017-10-19T00:28:18.090Z,36.17
2017-10-19T00:30:45.689Z,37.03
2017-10-19T00:33:13.383Z,36.40
2017-10-19T00:35:41.785Z,39.13
2017-10-19T00:38:09.393Z,33.05
2017-10-19T00:40:36.995Z,35.25
2017-10-19T00:43:04.619Z,32.83
2017-10-19T00:45:32.982Z,37.60
2017-10-19T00:48:00.626Z,39.53
2017-10-19T00:50:28.450Z,34.63
2017-10-19T00:52:56.838Z,31.05
2017-10-19T00:55:24.504Z,36.25
2017-10-19T00:57:53.061Z,37.42
2017-10-19T01:00:20.696Z,37.33
2017-10-19T01:02:48.325Z,35.33
2017-10-19T01:05:15.966Z,46.15
2017-10-19T01:07:44.308Z,37.63
2017-10-19T01:10:12.517Z,29.25
2017-10-19T01:12:40.125Z,35.10
2017-10-19T01:15:08.450Z,30.37
2017-10-19T01:17:36.818Z,30.73
2017-10-19T01:20:04.409Z,37.25
2017-10-19T01:22:32.066Z,35.88
2017-10-19T01:24:59.661Z,34.70
2017-10-19T01:27:27.261Z,30.92
2017-10-19T01:29:54.945Z,34.92
2017-10-19T01:32:22.529Z,29.85
2017-10-19T01:34:50.957Z,32.88
2017-10-19T01:37:18.561Z,36.42
2017-10-19T01:39:46.199Z,30.33
2017-10-19T01:42:13.822Z,29.65
2017-10-19T01:44:41.433Z,30.33
2017-10-19T01:47:09.139Z,32.28
2017-10-19T01:49:48.622Z,30.08
2017-10-19T01:52:16.322Z,30.25
2017-10-19T01:54:43.963Z,32.55
2017-10-19T01:57:11.601Z,30.35
2017-10-19T01:59:39.256Z,31.42
2017-10-19T02:02:06.839Z,30.55
2017-10-19T02:04:34.474Z,27.85
2017-10-19T02:07:02.062Z,28.77
2017-10-19T02:09:29.645Z,26.08
2017-10-19T02:11:57.259Z,28.35
2017-10-19T02:14:24.924Z,27.95
2017-10-19T02:16:52.596Z,25.60
2017-10-19T02:19:20.509Z,27.87
2017-10-19T02:21:48.120Z,31.77
2017-10-19T02:24:15.750Z,26.12
2017-10-19T02:26:43.352Z,28.70
2017-10-19T02:29:10.957Z,27.60
2017-10-19T02:31:38.555Z,30.60
2017-10-19T02:34:06.224Z,28.60
2017-10-19T02:36:33.839Z,26.48
2017-10-19T02:39:02.183Z,30.98
2017-10-19T02:41:29.838Z,28.98
2017-10-19T02:43:58.927Z,27.30
2017-10-19T02:46:26.558Z,28.90
2017-10-19T02:48:54.476Z,25.23
2017-10-19T02:51:22.071Z,27.35
2017-10-19T02:53:49.677Z,29.00
2017-10-19T02:56:17.285Z,27.20
2017-10-19T02:58:44.949Z,23.83
2017-10-19T03:01:12.948Z,27.77
2017-10-19T03:03:40.568Z,24.45
2017-10-19T03:06:08.195Z,24.33
2017-10-19T03:08:35.826Z,27.62
2017-10-19T03:11:03.455Z,25.50
2017-10-19T03:13:31.056Z,23.92
2017-10-19T03:15:58.696Z,25.62
2017-10-19T03:18:27.178Z,27.42
2017-10-19T03:20:54.813Z,25.98
2017-10-19T03:23:23.243Z,27.62
2017-10-19T03:25:50.853Z,29.33
2017-10-19T03:28:19.199Z,23.05
2017-10-19T03:30:46.819Z,25.75
2017-10-19T03:33:14.495Z,25.12
2017-10-19T03:35:42.093Z,29.23
2017-10-19T03:38:09.932Z,22.80
2017-10-19T03:40:37.561Z,30.52
2017-10-19T03:43:05.278Z,22.75
2017-10-19T03:45:32.906Z,28.30
2017-10-19T03:48:00.510Z,29.05
2017-10-19T03:50:28.576Z,26.02
2017-10-19T03:52:56.310Z,34.00
2017-10-19T03:55:23.999Z,27.90
2017-10-19T03:57:51.923Z,24.73
2017-10-19T04:00:19.500Z,23.35
2017-10-19T04:02:47.119Z,19.77
2017-10-19T04:05:15.472Z,22.40
2017-10-19T04:07:43.127Z,23.87
2017-10-19T04:10:10.724Z,24.75
2017-10-19T04:12:38.309Z,21.60
2017-10-19T04:15:05.971Z,23.80
2017-10-19T04:17:34.447Z,23.27
2017-10-19T04:20:02.093Z,25.42
2017-10-19T04:22:29.681Z,24.58
2017-10-19T04:24:57.285Z,25.00
2017-10-19T04:27:24.901Z,22.10
2017-10-19T04:29:52.513Z,24.37
2017-10-19T04:32:20.115Z,23.35
2017-10-19T04:34:47.719Z,21.05
2017-10-19T04:37:15.336Z,28.70
2017-10-19T04:39:42.980Z,24.58
2017-10-19T04:42:10.590Z,22.60
2017-10-19T04:44:38.961Z,28.05
2017-10-19T04:47:08.306Z,24.10
2017-10-19T04:49:35.994Z,25.42
2017-10-19T04:52:03.571Z,31.83
2017-10-19T04:54:31.163Z,23.60
2017-10-19T04:56:58.714Z,25.88
2017-10-19T04:59:27.124Z,23.77
2017-10-19T05:01:54.721Z,24.20
2017-10-19T05:04:22.317Z,22.10
2017-10-19T05:06:50.665Z,20.77
2017-10-19T05:09:18.277Z,23.15
2017-10-19T05:11:45.907Z,21.70
2017-10-19T05:14:13.511Z,25.10
2017-10-19T05:16:41.093Z,23.98
2017-10-19T05:19:08.664Z,25.65
2017-10-19T05:21:36.311Z,22.00
2017-10-19T05:24:03.907Z,28.52
2017-10-19T05:26:32.286Z,27.17
2017-10-19T05:28:59.886Z,25.75
2017-10-19T05:31:27.546Z,26.25
2017-10-19T05:33:55.133Z,29.00
2017-10-19T05:36:22.740Z,25.60
2017-10-19T05:38:51.089Z,27.30
2017-10-19T05:41:18.699Z,26.17
2017-10-19T05:43:46.339Z,29.12
2017-10-19T05:46:13.973Z,27.70
2017-10-19T05:48:42.425Z,27.80
2017-10-19T05:51:10.130Z,27.45
2017-10-19T05:53:38.507Z,30.70
2017-10-19T05:56:06.883Z,27.83
2017-10-19T05:58:35.244Z,29.48
2017-10-19T06:01:02.848Z,35.70
2017-10-19T06:03:30.435Z,28.60
2017-10-19T06:05:58.014Z,23.23
2017-10-19T06:08:25.607Z,26.05
2017-10-19T06:10:53.956Z,27.25
2017-10-19T06:13:21.567Z,25.65
2017-10-19T06:15:49.982Z,24.33
2017-10-19T06:18:17.548Z,29.20
2017-10-19T06:20:45.156Z,25.77
2017-10-19T06:23:13.489Z,27.42
2017-10-19T06:25:41.047Z,33.03
2017-10-19T06:28:08.821Z,28.30
2017-10-19T06:30:36.986Z,24.20
2017-10-19T06:33:04.591Z,20.45
2017-10-19T06:35:32.945Z,24.80
2017-10-19T06:38:01.505Z,27.40
2017-10-19T06:40:29.128Z,22.42
2017-10-19T06:42:56.821Z,26.83
2017-10-19T06:45:24.502Z,26.80
2017-10-19T06:47:52.115Z,29.30
2017-10-19T06:50:19.744Z,21.70
2017-10-19T06:52:48.091Z,29.45
2017-10-19T06:55:15.746Z,23.80
2017-10-19T06:57:43.411Z,29.58
2017-10-19T07:00:11.009Z,25.80
2017-10-19T07:02:39.403Z,28.55
2017-10-19T07:05:07.002Z,24.77
2017-10-19T07:07:34.646Z,31.40
2017-10-19T07:10:02.282Z,25.05
2017-10-19T07:12:30.644Z,25.02
2017-10-19T07:14:59.018Z,26.05
2017-10-19T07:17:26.659Z,25.27
2017-10-19T07:19:54.273Z,25.48
2017-10-19T07:22:21.921Z,23.75
2017-10-19T07:24:50.268Z,23.05
2017-10-19T07:27:17.897Z,28.52
2017-10-19T07:29:45.512Z,27.67
2017-10-19T07:32:13.900Z,31.35
2017-10-19T07:34:42.304Z,24.92
2017-10-19T07:37:09.903Z,32.85
2017-10-19T07:39:37.488Z,27.13
2017-10-19T07:42:05.053Z,28.65
2017-10-19T07:44:33.442Z,24.65
2017-10-19T07:47:01.799Z,22.80
2017-10-19T07:49:29.432Z,23.25
2017-10-19T07:51:57.056Z,28.38
2017-10-19T07:54:24.705Z,27.08
2017-10-19T07:56:53.082Z,28.70
2017-10-19T07:59:21.451Z,23.67
2017-10-19T08:01:49.866Z,20.73
2017-10-19T08:04:17.496Z,25.08
2017-10-19T08:06:45.875Z,33.30
2017-10-19T08:09:14.244Z,29.65
2017-10-19T08:11:42.631Z,28.35
2017-10-19T08:14:10.228Z,22.37
2017-10-19T08:16:37.798Z,29.17
2017-10-19T08:19:05.457Z,25.90
2017-10-19T08:21:33.047Z,25.60
2017-10-19T08:24:00.679Z,25.15
2017-10-19T08:26:28.261Z,25.87
2017-10-19T08:28:55.933Z,30.50
2017-10-19T08:31:23.568Z,30.70
2017-10-19T08:33:51.138Z,22.40
2017-10-19T08:36:19.008Z,23.93
2017-10-19T08:38:46.592Z,25.13
2017-10-19T08:41:15.626Z,22.90
2017-10-19T08:43:43.273Z,21.93
2017-10-19T08:46:11.641Z,21.60
2017-10-19T08:48:40.030Z,25.30
2017-10-19T08:51:08.413Z,27.13
2017-10-19T08:53:36.031Z,29.67
2017-10-19T08:56:03.625Z,26.23
2017-10-19T08:58:31.248Z,30.47
2017-10-19T09:00:58.845Z,25.70
2017-10-19T09:03:27.179Z,30.50
2017-10-19T09:05:54.760Z,25.30
2017-10-19T09:08:22.345Z,22.27
2017-10-19T09:10:50.739Z,20.87
2017-10-19T09:13:18.335Z,24.70
2017-10-19T09:15:45.948Z,24.37
2017-10-19T09:18:14.309Z,24.60
2017-10-19T09:20:43.290Z,26.00
2017-10-19T09:23:10.890Z,25.70
2017-10-19T09:25:38.454Z,24.50
2017-10-19T09:28:06.049Z,22.30
2017-10-19T09:30:33.704Z,27.93
2017-10-19T09:33:01.284Z,26.43
2017-10-19T09:35:28.923Z,34.53
2017-10-19T09:37:56.523Z,28.67
2017-10-19T09:40:24.112Z,31.40
2017-10-19T09:42:51.733Z,26.90
2017-10-19T09:45:19.348Z,20.47
2017-10-19T09:47:46.993Z,29.90
2017-10-19T09:50:14.629Z,27.03
2017-10-19T09:52:42.256Z,24.93
2017-10-19T09:55:09.858Z,31.43
2017-10-19T09:57:38.254Z,27.60
2017-10-19T10:00:05.817Z,24.20
2017-10-19T10:02:33.414Z,25.60
2017-10-19T10:05:01.041Z,25.80
2017-10-19T10:07:28.626Z,25.50
2017-10-19T10:09:56.402Z,26.67
2017-10-19T10:12:23.957Z,25.20
2017-10-19T10:14:51.590Z,30.37
2017-10-19T10:17:19.349Z,25.73
2017-10-19T10:19:47.000Z,24.33
2017-10-19T10:22:16.149Z,24.60
2017-10-19T10:24:44.010Z,24.50
2017-10-19T10:27:11.597Z,25.17
2017-10-19T10:29:39.240Z,26.03
2017-10-19T10:32:06.872Z,26.20
2017-10-19T10:34:34.452Z,22.00
2017-10-19T10:37:02.008Z,24.37
2017-10-19T10:39:29.612Z,26.00
2017-10-19T10:41:57.205Z,22.30
2017-10-19T10:44:24.841Z,22.50
2017-10-19T10:46:53.186Z,24.80
2017-10-19T10:49:20.772Z,23.77
2017-10-19T10:51:48.376Z,23.60
2017-10-19T10:54:15.963Z,23.57
2017-10-19T10:56:43.586Z,21.60
2017-10-19T10:59:11.192Z,24.53
2017-10-19T11:01:38.807Z,31.17
2017-10-19T11:04:06.410Z,19.53
2017-10-19T11:06:33.963Z,22.10
2017-10-19T11:09:01.590Z,21.73
2017-10-19T11:11:29.157Z,20.97
2017-10-19T11:13:56.779Z,20.30
2017-10-19T11:16:24.386Z,19.63
2017-10-19T11:18:51.949Z,25.40
2017-10-19T11:21:19.503Z,23.30
2017-10-19T11:23:47.111Z,22.37
2017-10-19T11:26:14.729Z,22.93
2017-10-19T11:28:43.081Z,23.10
2017-10-19T11:31:11.503Z,23.70
2017-10-19T11:33:39.112Z,24.80
2017-10-19T11:36:06.705Z,36.47
2017-10-19T11:38:34.271Z,23.43
2017-10-19T11:41:01.882Z,22.43
2017-10-19T11:43:29.442Z,24.57
2017-10-19T11:45:57.040Z,18.60
2017-10-19T11:48:24.651Z,20.63
2017-10-19T11:50:52.244Z,19.60
2017-10-19T11:53:19.858Z,24.30
2017-10-19T11:55:47.413Z,16.13
2017-10-19T11:58:14.970Z,16.13
2017-10-19T12:00:42.606Z,35.33
2017-10-19T12:03:10.186Z,18.60
2017-10-19T12:05:37.786Z,19.73
2017-10-19T12:08:06.112Z,32.30
2017-10-19T12:10:33.689Z,20.50
2017-10-19T12:13:02.012Z,20.60
2017-10-19T12:15:30.396Z,26.33
2017-10-19T12:17:58.744Z,23.07
2017-10-19T12:20:26.332Z,16.83
2017-10-19T12:22:54.698Z,21.70
2017-10-19T12:25:22.265Z,19.90
2017-10-19T12:27:49.882Z,20.70
2017-10-19T12:30:17.491Z,19.67
2017-10-19T12:32:45.840Z,22.27
2017-10-19T12:35:13.428Z,20.90
2017-10-19T12:37:41.788Z,28.03
2017-10-19T12:40:09.420Z,16.70
2017-10-19T12:42:37.021Z,22.83
2017-10-19T12:45:05.346Z,18.67
2017-10-19T12:47:32.959Z,17.20
2017-10-19T12:50:01.353Z,20.17
2017-10-19T12:52:28.988Z,21.73
2017-10-19T12:54:56.575Z,16.30
2017-10-19T12:57:24.924Z,27.60
2017-10-19T12:59:52.544Z,30.03
2017-10-19T13:02:20.179Z,21.83
2017-10-19T13:04:47.752Z,15.63
2017-10-19T13:07:15.317Z,19.10
2017-10-19T13:09:42.906Z,14.77
2017-10-19T13:12:10.576Z,17.13
2017-10-19T13:14:38.232Z,17.80
2017-10-19T13:17:05.816Z,17.80
2017-10-19T13:19:33.414Z,17.20
2017-10-19T13:22:01.038Z,18.80
2017-10-19T13:24:28.607Z,14.10
2017-10-19T13:26:57.021Z,14.70
2017-10-19T13:29:24.589Z,20.80
2017-10-19T13:31:52.431Z,16.43
2017-10-19T13:34:20.031Z,16.37
2017-10-19T13:36:47.593Z,12.93
2017-10-19T13:39:16.119Z,14.73
2017-10-19T13:41:44.513Z,19.73
2017-10-19T13:44:12.185Z,21.73
2017-10-19T13:46:39.793Z,15.50
2017-10-19T13:49:07.391Z,15.27
2017-10-19T13:51:34.997Z,15.53
2017-10-19T13:54:02.575Z,14.60
2017-10-19T13:56:30.166Z,14.27
2017-10-19T13:58:58.534Z,14.87
2017-10-19T14:01:26.926Z,19.07
2017-10-19T14:03:55.332Z,13.70
2017-10-19T14:06:22.930Z,14.63
2017-10-19T14:08:52.264Z,13.20
2017-10-19T14:11:19.854Z,13.53
2017-10-19T14:13:47.460Z,27.07
2017-10-19T14:16:15.126Z,14.87
2017-10-19T14:18:42.756Z,13.60
2017-10-19T14:21:10.438Z,15.10
2017-10-19T14:23:38.058Z,23.07
2017-10-19T14:26:05.730Z,19.73
2017-10-19T14:28:34.132Z,14.90
2017-10-19T14:31:01.694Z,18.43
2017-10-19T14:33:29.321Z,16.87
2017-10-19T14:35:56.925Z,21.20
2017-10-19T14:38:24.568Z,19.43
2017-10-19T14:40:52.165Z,22.70
2017-10-19T14:43:19.770Z,16.57
2017-10-19T14:45:47.394Z,18.77
2017-10-19T14:48:15.053Z,18.23
2017-10-19T14:50:42.652Z,14.97
2017-10-19T14:53:10.253Z,19.40
2017-10-19T14:55:38.730Z,18.00
2017-10-19T14:58:07.268Z,14.80
2017-10-19T15:00:34.968Z,21.27
2017-10-19T15:03:02.558Z,16.50
2017-10-19T15:05:31.022Z,12.13
2017-10-19T15:07:58.673Z,14.47
2017-10-19T15:10:26.299Z,14.93
2017-10-19T15:12:54.818Z,16.27
2017-10-19T15:15:22.694Z,17.63
2017-10-19T15:17:50.375Z,14.43
2017-10-19T15:20:18.119Z,12.80
2017-10-19T15:22:46.536Z,13.10
2017-10-19T15:25:14.189Z,12.73
2017-10-19T15:27:41.843Z,10.80
2017-10-19T15:30:09.505Z,11.80
2017-10-19T15:32:37.166Z,11.47
2017-10-19T15:35:04.803Z,12.13
2017-10-19T15:37:33.387Z,13.03
2017-10-19T15:40:01.805Z,20.43
2017-10-19T15:42:30.302Z,14.47
2017-10-19T15:44:57.903Z,21.83
2017-10-19T15:47:25.597Z,12.60
2017-10-19T15:49:53.196Z,13.07
2017-10-19T15:52:20.764Z,18.27
2017-10-19T15:54:48.415Z,19.03
2017-10-19T15:57:16.028Z,20.63
2017-10-19T15:59:44.450Z,17.40
2017-10-19T16:02:12.065Z,15.93
2017-10-19T16:04:40.461Z,16.70
2017-10-19T16:07:08.878Z,16.43
2017-10-19T16:09:36.548Z,16.83
2017-10-19T16:12:04.185Z,21.23
2017-10-19T16:14:31.768Z,16.87
2017-10-19T16:16:59.401Z,16.17
2017-10-19T16:19:26.983Z,22.03
2017-10-19T16:21:55.328Z,20.83
2017-10-19T16:24:22.978Z,20.00
2017-10-19T16:26:54.751Z,25.37
2017-10-19T16:29:22.466Z,17.37
2017-10-19T16:31:50.103Z,19.63
2017-10-19T16:34:18.512Z,24.03
2017-10-19T16:36:46.522Z,25.97
2017-10-19T16:39:14.189Z,24.73
2017-10-19T16:41:41.851Z,18.00
2017-10-19T16:44:09.570Z,25.20
2017-10-19T16:46:37.181Z,26.33
2017-10-19T16:49:04.930Z,26.10
2017-10-19T16:51:32.528Z,18.43
2017-10-19T16:54:00.139Z,22.53
2017-10-19T16:56:28.612Z,19.30
2017-10-19T16:58:57.017Z,18.23
2017-10-19T17:01:24.615Z,25.93
2017-10-19T17:03:52.249Z,16.07
2017-10-19T17:06:19.881Z,20.90
2017-10-19T17:08:49.018Z,24.00
2017-10-19T17:11:16.613Z,21.53
2017-10-19T17:13:44.191Z,19.27
2017-10-19T17:16:12.585Z,20.33
2017-10-19T17:18:40.182Z,20.47
2017-10-19T17:21:07.805Z,20.83
2017-10-19T17:23:36.174Z,20.07
2017-10-19T17:26:04.546Z,24.50
2017-10-19T17:28:32.253Z,19.60
2017-10-19T17:30:59.870Z,17.90
2017-10-19T17:33:27.473Z,21.70
2017-10-19T17:35:55.261Z,27.57
2017-10-19T17:38:22.863Z,18.60
2017-10-19T17:40:51.222Z,25.37
2017-10-19T17:43:18.861Z,25.10
2017-10-19T17:45:46.472Z,26.37
2017-10-19T17:48:14.123Z,31.40
2017-10-19T17:50:42.472Z,32.23
2017-10-19T17:53:10.077Z,23.00
2017-10-19T17:55:37.663Z,26.53
2017-10-19T17:58:05.269Z,22.40
2017-10-19T18:00:32.888Z,20.30
2017-10-19T18:03:00.500Z,28.00
2017-10-19T18:05:28.178Z,28.60
2017-10-19T18:07:55.829Z,30.83
2017-10-19T18:10:23.459Z,26.17
2017-10-19T18:12:51.084Z,28.40
2017-10-19T18:15:18.724Z,20.40
2017-10-19T18:17:47.105Z,24.83
2017-10-19T18:20:14.726Z,18.43
2017-10-19T18:22:42.309Z,21.43
2017-10-19T18:25:09.933Z,23.13
2017-10-19T18:27:37.558Z,29.57
2017-10-19T18:30:05.155Z,19.83
2017-10-19T18:32:32.776Z,20.53
2017-10-19T18:35:00.355Z,22.87
2017-10-19T18:37:27.962Z,21.43
2017-10-19T18:39:55.583Z,25.03
2017-10-19T18:42:23.205Z,21.90
2017-10-19T18:44:50.823Z,26.90
2017-10-19T18:47:18.536Z,22.63
2017-10-19T18:49:46.131Z,24.60
2017-10-19T18:52:13.739Z,22.27
2017-10-19T18:54:41.391Z,22.67
2017-10-19T18:57:09.027Z,27.93
2017-10-19T18:59:36.612Z,20.77
2017-10-19T19:02:04.354Z,26.27
2017-10-19T19:04:31.957Z,26.00
2017-10-19T19:06:59.906Z,25.27
2017-10-19T19:09:27.490Z,25.33
2017-10-19T19:11:55.095Z,25.50
2017-10-19T19:14:22.675Z,28.40
2017-10-19T19:16:50.267Z,24.10
2017-10-19T19:19:17.902Z,22.80
2017-10-19T19:21:45.563Z,21.87
2017-10-19T19:24:13.233Z,23.77
2017-10-19T19:26:40.807Z,25.23
2017-10-19T19:29:08.462Z,27.00
2017-10-19T19:31:36.069Z,28.53
2017-10-19T19:34:03.629Z,25.73
2017-10-19T19:36:31.280Z,23.80
2017-10-19T19:38:58.898Z,21.03
2017-10-19T19:41:27.284Z,29.33
2017-10-19T19:43:55.639Z,29.07
2017-10-19T19:46:23.241Z,21.70
2017-10-19T19:48:50.865Z,24.93
2017-10-19T19:51:18.474Z,28.13
2017-10-19T19:53:46.096Z,35.23
2017-10-19T19:56:13.707Z,25.10
2017-10-19T19:58:41.277Z,32.03
2017-10-19T20:01:09.682Z,29.00
2017-10-19T20:03:37.241Z,26.27
2017-10-19T20:06:04.830Z,26.80
2017-10-19T20:08:33.223Z,28.00
2017-10-19T20:11:00.838Z,30.07
2017-10-19T20:13:28.461Z,27.03
2017-10-19T20:15:56.065Z,25.77
2017-10-19T20:18:23.648Z,24.53
2017-10-19T20:20:51.297Z,25.93
2017-10-19T20:23:18.967Z,25.70
2017-10-19T20:25:47.344Z,28.37
2017-10-19T20:28:15.680Z,27.80
2017-10-19T20:30:43.269Z,22.80
2017-10-19T20:33:10.917Z,26.83
2017-10-19T20:35:38.542Z,26.57
2017-10-19T20:38:06.208Z,25.07
2017-10-19T20:40:33.837Z,30.73
2017-10-19T20:43:01.535Z,27.23
2017-10-19T20:45:29.127Z,25.30
2017-10-19T20:47:56.721Z,35.37
2017-10-19T20:50:24.949Z,28.93
2017-10-19T20:52:52.573Z,25.93
2017-10-19T20:55:20.191Z,24.77
2017-10-19T20:57:47.793Z,25.73
2017-10-19T21:00:15.396Z,26.40
2017-10-19T21:02:43.038Z,27.07
2017-10-19T21:05:10.631Z,22.63
2017-10-19T21:07:38.253Z,23.50
2017-10-19T21:10:05.821Z,25.40
2017-10-19T21:12:33.442Z,21.43
2017-10-19T21:15:01.810Z,25.00
2017-10-19T21:17:42.905Z,23.63
2017-10-19T21:20:11.241Z,24.77
2017-10-19T21:22:38.847Z,24.00
2017-10-19T21:25:06.453Z,24.60
2017-10-19T21:27:34.035Z,26.80
2017-10-19T21:30:01.635Z,21.53
2017-10-19T21:32:29.190Z,19.03
2017-10-19T21:34:56.753Z,24.40
2017-10-19T21:37:24.335Z,24.80
2017-10-19T21:39:51.946Z,27.57
2017-10-19T21:42:19.568Z,22.80
2017-10-19T21:44:47.161Z,22.40
2017-10-19T21:47:14.777Z,23.90
2017-10-19T21:49:42.356Z,25.40
2017-10-19T21:52:09.934Z,22.10
2017-10-19T21:54:37.576Z,28.43
2017-10-19T21:57:05.180Z,20.73
2017-10-19T21:59:33.547Z,21.80
2017-10-19T22:02:01.939Z,22.10
2017-10-19T22:04:30.356Z,18.37
2017-10-19T22:06:58.005Z,22.17
2017-10-19T22:09:25.631Z,21.97
2017-10-19T22:11:54.007Z,20.27
2017-10-19T22:14:21.634Z,29.83
2017-10-19T22:16:50.011Z,23.67
2017-10-19T22:19:17.642Z,21.23
2017-10-19T22:21:45.231Z,24.60
2017-10-19T22:24:13.580Z,21.63
2017-10-19T22:26:41.171Z,24.77
2017-10-19T22:29:08.752Z,26.30
2017-10-19T22:31:36.356Z,21.77
2017-10-19T22:34:03.945Z,26.50
2017-10-19T22:36:32.305Z,20.77
2017-10-19T22:38:59.892Z,19.77
2017-10-19T22:41:28.246Z,25.60
2017-10-19T22:43:55.869Z,23.93
2017-10-19T22:46:23.471Z,21.37
2017-10-19T22:48:51.819Z,31.53
2017-10-19T22:51:19.474Z,26.13
2017-10-19T22:53:47.050Z,26.33
2017-10-19T22:56:14.687Z,19.53
2017-10-19T22:58:42.244Z,26.23
2017-10-19T23:01:09.853Z,29.63
2017-10-19T23:03:37.445Z,22.10
2017-10-19T23:06:05.063Z,26.43
2017-10-19T23:08:32.734Z,23.20
2017-10-19T23:11:00.305Z,30.30
2017-10-19T23:13:28.664Z,28.30
2017-10-19T23:15:56.254Z,18.83
2017-10-19T23:18:24.613Z,23.87
2017-10-19T23:20:52.994Z,24.37
2017-10-19T23:23:22.268Z,27.03
2017-10-19T23:25:49.930Z,24.80
2017-10-19T23:28:17.531Z,22.37
2017-10-19T23:30:45.100Z,21.90
2017-10-19T23:33:12.704Z,22.67
2017-10-19T23:35:40.269Z,21.30
2017-10-19T23:38:07.851Z,19.43
2017-10-19T23:40:35.435Z,21.10
2017-10-19T23:43:02.997Z,21.30
2017-10-19T23:45:30.592Z,21.73
2017-10-19T23:47:58.215Z,20.03
2017-10-19T23:50:26.552Z,25.60
2017-10-19T23:52:54.161Z,21.60
2017-10-19T23:55:21.744Z,25.93
2017-10-19T23:57:49.365Z,25.73
